Time;durP1;ratioP1;P1;durP2;ratioP2;P2;SDS_P1;SDS_P2;PMS_P1;PMS_P2;Temp;Humidity;BMP_temperature;BMP_pressure;BME280_temperature;BME280_humidity;BME280_pressure;Samples;Min_cycle;Max_cycle;Signal;HPM_P1;HPM_P2
2022/07/10 00:00:53;;;;;;;1.75;0.80;;;;;;;21.28;68.74;102459.03;7377738;19;20018;-63
2022/07/10 00:03:20;;;;;;;5.45;1.00;;;;;;;21.26;68.80;102453.03;7376437;19;20018;-63
2022/07/10 00:05:49;;;;;;;1.10;0.60;;;;;;;21.22;68.33;102452.56;7374658;19;20014;-63
2022/07/10 00:08:16;;;;;;;2.65;0.90;;;;;;;21.22;68.51;102455.25;7375841;19;20010;-63
2022/07/10 00:10:43;;;;;;;2.35;0.90;;;;;;;21.20;69.22;102459.09;7372118;19;20015;-63
2022/07/10 00:13:10;;;;;;;2.13;0.88;;;;;;;21.15;68.69;102451.63;7375953;19;20901;-64
2022/07/10 00:15:38;;;;;;;1.70;0.80;;;;;;;21.14;68.90;102449.94;7377864;19;20031;-66
2022/07/10 00:18:04;;;;;;;1.85;0.80;;;;;;;21.11;69.19;102455.66;7376807;19;20704;-63
2022/07/10 00:20:32;;;;;;;1.83;0.77;;;;;;;21.11;69.22;102447.63;7375208;19;20018;-64
2022/07/10 00:22:59;;;;;;;1.20;0.80;;;;;;;21.11;69.03;102449.47;7376992;19;20035;-62
2022/07/10 00:25:27;;;;;;;1.92;0.85;;;;;;;21.10;68.97;102445.09;7379677;19;20043;-63
2022/07/10 00:27:55;;;;;;;2.25;0.70;;;;;;;21.09;69.16;102446.94;7378587;19;20069;-65
2022/07/10 00:30:22;;;;;;;2.08;0.75;;;;;;;21.07;68.83;102438.28;7379604;19;20026;-62
2022/07/10 00:32:48;;;;;;;2.92;0.77;;;;;;;21.06;69.16;102441.13;7380946;19;20025;-63
2022/07/10 00:35:15;;;;;;;2.10;0.77;;;;;;;21.06;69.03;102433.09;7379134;19;20305;-64
2022/07/10 00:37:54;;;;;;;3.05;0.90;;;;;;;21.06;68.85;102439.31;7378990;19;20018;-63
2022/07/10 00:40:22;;;;;;;2.72;1.00;;;;;;;21.04;68.89;102435.97;7378287;19;20102;-64
2022/07/10 00:42:49;;;;;;;3.30;1.10;;;;;;;21.01;68.97;102439.00;7377217;19;20029;-63
2022/07/10 00:45:16;;;;;;;2.05;0.85;;;;;;;21.00;69.15;102444.53;7380950;19;20018;-63
2022/07/10 00:47:49;;;;;;;1.58;0.80;;;;;;;20.97;69.41;102439.56;7379975;19;20105;-63
2022/07/10 00:50:16;;;;;;;1.88;0.80;;;;;;;20.94;69.43;102438.06;7378461;19;20026;-62
2022/07/10 00:52:43;;;;;;;2.78;1.10;;;;;;;20.93;69.47;102439.91;7381906;19;20091;-62
2022/07/10 00:55:10;;;;;;;2.58;0.88;;;;;;;20.93;69.54;102439.06;7380327;19;20018;-62
2022/07/10 00:57:39;;;;;;;8.60;4.55;;;;;;;20.90;69.39;102434.94;7380712;19;20010;-62
2022/07/10 01:00:13;;;;;;;1.50;0.90;;;;;;;20.88;69.44;102436.94;7383193;19;20025;-63
2022/07/10 01:02:44;;;;;;;6.88;1.08;;;;;;;20.81;69.58;102430.66;7386514;19;20022;-63
2022/07/10 01:05:11;;;;;;;2.95;0.90;;;;;;;20.77;69.61;102432.03;7387373;19;20094;-63
2022/07/10 01:07:39;;;;;;;2.50;0.90;;;;;;;20.75;69.78;102430.53;7388564;19;20018;-63
2022/07/10 01:10:06;;;;;;;3.13;1.00;;;;;;;20.76;70.02;102429.53;7384118;19;20033;-63
2022/07/10 01:12:34;;;;;;;3.22;1.02;;;;;;;20.74;69.89;102424.34;7383521;19;20353;-63
2022/07/10 01:15:01;;;;;;;3.83;1.00;;;;;;;20.76;69.70;102433.03;7387435;19;20670;-64
2022/07/10 01:17:29;;;;;;;2.65;1.00;;;;;;;20.77;69.37;102425.84;7388043;19;20381;-67
2022/07/10 01:19:56;;;;;;;2.03;0.80;;;;;;;20.77;69.59;102433.88;7385916;19;20085;-63
2022/07/10 01:22:33;;;;;;;1.50;1.10;;;;;;;20.77;69.34;102426.69;7383776;19;20021;-63
2022/07/10 01:25:00;;;;;;;1.92;1.00;;;;;;;20.75;69.33;102426.03;7382094;19;20821;-63
2022/07/10 01:27:43;;;;;;;1.80;0.90;;;;;;;20.74;69.54;102426.19;7386675;19;20006;-63
2022/07/10 01:30:13;;;;;;;3.58;0.90;;;;;;;20.73;68.98;102419.19;7387855;19;20018;-64
2022/07/10 01:32:40;;;;;;;1.73;0.70;;;;;;;20.74;69.14;102420.84;7388669;19;20014;-63
2022/07/10 01:35:08;;;;;;;1.88;0.82;;;;;;;20.71;69.18;102421.22;7386384;19;20867;-63
2022/07/10 01:37:36;;;;;;;2.03;0.95;;;;;;;20.71;69.63;102423.88;7383871;19;20103;-63
2022/07/10 01:40:04;;;;;;;2.47;0.98;;;;;;;20.69;68.95;102426.75;7385255;19;20809;-63
2022/07/10 01:42:31;;;;;;;2.20;0.90;;;;;;;20.68;69.89;102419.72;7385899;19;20070;-62
2022/07/10 01:45:00;;;;;;;2.80;0.82;;;;;;;20.69;69.54;102417.88;7386386;19;20030;-62
2022/07/10 01:47:33;;;;;;;4.53;1.23;;;;;;;20.66;69.46;102416.41;7386969;19;20042;-62
2022/07/10 01:50:06;;;;;;;2.00;0.98;;;;;;;20.67;69.78;102403.88;7386707;19;20498;-63
2022/07/10 01:52:36;;;;;;;1.67;0.85;;;;;;;20.65;69.94;102412.06;7386746;19;20511;-63
2022/07/10 01:55:04;;;;;;;2.85;1.00;;;;;;;20.61;69.55;102410.75;7382836;19;20082;-64
2022/07/10 01:57:32;;;;;;;2.65;1.27;;;;;;;20.60;69.99;102411.78;7384638;19;20617;-64
2022/07/10 01:59:59;;;;;;;1.90;0.90;;;;;;;20.57;70.26;102412.09;7386422;19;20022;-63
2022/07/10 02:02:26;;;;;;;3.60;1.13;;;;;;;20.55;70.33;102411.47;7385293;19;20018;-63
2022/07/10 02:04:53;;;;;;;2.55;1.10;;;;;;;20.53;70.40;102412.66;7387031;19;20015;-64
2022/07/10 02:07:22;;;;;;;4.15;1.20;;;;;;;20.51;70.27;102404.81;7384766;19;20089;-63
2022/07/10 02:09:49;;;;;;;2.20;1.10;;;;;;;20.49;70.67;102407.66;7385295;19;20074;-63
2022/07/10 02:12:16;;;;;;;3.45;1.35;;;;;;;20.45;70.41;102401.03;7376108;19;20018;-63
2022/07/10 02:14:43;;;;;;;4.47;1.58;;;;;;;20.43;71.05;102413.72;7382668;19;20018;-64
2022/07/10 02:17:11;;;;;;;4.13;1.40;;;;;;;20.41;70.65;102409.59;7384842;19;20029;-63
2022/07/10 02:19:38;;;;;;;2.88;1.45;;;;;;;20.36;70.69;102412.78;7384868;19;20017;-64
2022/07/10 02:22:05;;;;;;;2.72;0.95;;;;;;;20.33;71.05;102406.94;7385089;19;20032;-64
2022/07/10 02:24:32;;;;;;;1.85;0.90;;;;;;;20.33;70.97;102413.13;7381953;19;20519;-64
2022/07/10 02:26:58;;;;;;;3.10;0.90;;;;;;;20.32;71.01;102407.94;7382463;19;20021;-64
2022/07/10 02:29:25;;;;;;;3.47;0.95;;;;;;;20.32;70.80;102406.13;7385704;19;20010;-65
2022/07/10 02:31:52;;;;;;;3.90;1.27;;;;;;;20.30;70.71;102413.47;7381882;19;20024;-62
2022/07/10 02:34:19;;;;;;;3.58;1.20;;;;;;;20.27;70.79;102407.63;7385445;19;20037;-64
2022/07/10 02:36:46;;;;;;;4.22;1.05;;;;;;;20.26;70.80;102412.16;7382058;19;20082;-66
2022/07/10 02:39:13;;;;;;;3.13;1.08;;;;;;;20.24;70.99;102408.00;7384456;19;20655;-64
2022/07/10 02:41:41;;;;;;;3.97;1.13;;;;;;;20.22;71.00;102410.00;7384025;19;20014;-63
2022/07/10 02:44:07;;;;;;;3.10;0.73;;;;;;;20.18;70.88;102404.19;7383319;19;20866;-64
2022/07/10 02:46:34;;;;;;;2.75;0.80;;;;;;;20.17;71.08;102393.66;7384131;19;20018;-64
2022/07/10 02:49:02;;;;;;;1.45;0.70;;;;;;;20.16;70.68;102397.34;7383109;19;20062;-63
2022/07/10 02:51:29;;;;;;;4.35;0.80;;;;;;;20.17;70.92;102404.34;7380339;19;20029;-63
2022/07/10 02:53:56;;;;;;;2.70;0.82;;;;;;;20.18;70.38;102401.50;7383733;19;20089;-63
2022/07/10 02:56:23;;;;;;;2.88;1.00;;;;;;;20.15;70.63;102403.72;7382904;19;20021;-63
2022/07/10 02:58:50;;;;;;;5.60;1.33;;;;;;;20.13;70.63;102395.03;7382637;19;20014;-64
2022/07/10 03:01:17;;;;;;;3.15;1.02;;;;;;;20.11;70.74;102399.72;7384151;19;20021;-63
2022/07/10 03:03:47;;;;;;;5.15;1.02;;;;;;;20.11;70.46;102394.38;7383371;19;20022;-63
2022/07/10 03:06:13;;;;;;;2.65;1.00;;;;;;;20.07;70.72;102400.06;7382718;19;20037;-62
2022/07/10 03:08:41;;;;;;;3.78;0.93;;;;;;;20.03;70.42;102400.59;7382618;19;20014;-63
2022/07/10 03:11:09;;;;;;;3.63;0.90;;;;;;;20.03;70.28;102400.59;7381058;19;20017;-62
2022/07/10 03:13:36;;;;;;;1.98;0.70;;;;;;;20.03;70.44;102393.41;7381129;19;20469;-65
2022/07/10 03:16:03;;;;;;;2.92;0.85;;;;;;;19.96;70.58;102395.09;7383540;19;20491;-65
2022/07/10 03:18:30;;;;;;;4.32;0.80;;;;;;;19.94;70.67;102383.78;7384254;19;20150;-65
2022/07/10 03:20:57;;;;;;;2.13;0.80;;;;;;;19.93;70.63;102395.47;7380916;19;20018;-68
2022/07/10 03:23:24;;;;;;;2.22;0.90;;;;;;;19.92;70.49;102385.78;7380332;19;20474;-63
2022/07/10 03:25:51;;;;;;;4.03;0.70;;;;;;;19.92;70.60;102387.63;7380834;19;20010;-64
2022/07/10 03:28:18;;;;;;;6.30;0.93;;;;;;;19.92;70.19;102379.59;7382830;19;20013;-63
2022/07/10 03:30:44;;;;;;;3.95;0.70;;;;;;;19.90;69.37;102387.00;7382810;19;20021;-63
2022/07/10 03:33:11;;;;;;;2.75;0.50;;;;;;;19.83;69.25;102386.84;7384173;19;20079;-63
2022/07/10 03:35:38;;;;;;;2.30;0.60;;;;;;;19.79;68.97;102374.84;7380804;19;20026;-63
2022/07/10 03:38:05;;;;;;;2.17;0.47;;;;;;;19.76;68.57;102380.53;7379572;19;20089;-63
2022/07/10 03:40:32;;;;;;;2.72;0.60;;;;;;;19.72;68.12;102371.19;7381822;19;20323;-64
2022/07/10 03:42:59;;;;;;;1.98;0.60;;;;;;;19.72;67.73;102371.19;7381386;19;20018;-63
2022/07/10 03:45:26;;;;;;;1.98;0.60;;;;;;;19.71;67.32;102368.72;7379766;19;20010;-63
2022/07/10 03:47:53;;;;;;;3.33;0.38;;;;;;;19.69;65.98;102370.72;7383479;19;20024;-63
2022/07/10 03:50:19;;;;;;;2.97;0.50;;;;;;;19.68;64.80;102367.22;7380291;19;20014;-63
2022/07/10 03:52:46;;;;;;;2.92;0.93;;;;;;;19.67;64.52;102362.03;7382924;19;20371;-62
2022/07/10 03:55:13;;;;;;;1.73;0.30;;;;;;;19.66;63.99;102373.75;7380345;19;20033;-62
2022/07/10 03:57:56;;;;;;;1.10;0.40;;;;;;;19.64;64.29;102366.75;7382769;19;20014;-62
2022/07/10 04:00:24;;;;;;;;;;;;;;;19.64;64.27;102372.09;7383101;19;20014;-62
2022/07/10 04:02:58;;;;;;;2.47;0.38;;;;;;;19.57;64.69;102363.09;7379447;19;19929;-62
2022/07/10 04:05:26;;;;;;;1.38;0.30;;;;;;;19.54;64.73;102362.63;7380574;19;20633;-63
2022/07/10 04:07:54;;;;;;;2.40;0.30;;;;;;;19.54;64.78;102370.63;7380570;19;20011;-63
2022/07/10 04:10:21;;;;;;;2.00;0.40;;;;;;;19.53;64.66;102363.63;7378225;19;20424;-65
2022/07/10 04:12:49;;;;;;;2.75;0.52;;;;;;;19.52;64.85;102361.94;7380845;19;20093;-65
2022/07/10 04:15:16;;;;;;;2.83;0.47;;;;;;;19.50;65.02;102362.13;7377339;19;20090;-65
2022/07/10 04:17:43;;;;;;;2.42;0.40;;;;;;;19.48;65.15;102364.13;7381183;19;20022;-65
2022/07/10 04:20:11;;;;;;;2.08;0.40;;;;;;;19.46;65.19;102366.13;7379480;19;20022;-65
2022/07/10 04:22:38;;;;;;;3.55;0.60;;;;;;;19.41;65.43;102362.28;7379657;19;20018;-65
2022/07/10 04:25:06;;;;;;;2.72;0.50;;;;;;;19.36;65.61;102362.81;7378904;19;20007;-65
2022/07/10 04:27:33;;;;;;;1.60;0.50;;;;;;;19.34;66.04;102361.34;7380783;19;20021;-65
2022/07/10 04:30:00;;;;;;;1.02;0.38;;;;;;;19.30;66.34;102352.81;7381003;19;20015;-66
2022/07/10 04:32:27;;;;;;;1.60;0.40;;;;;;;19.30;66.86;102360.81;7379899;19;20014;-65
2022/07/10 04:34:55;;;;;;;1.52;0.50;;;;;;;19.32;67.29;102363.31;7379502;19;20022;-65
2022/07/10 04:37:22;;;;;;;2.63;0.50;;;;;;;19.32;67.22;102360.66;7383976;19;20035;-65
2022/07/10 04:39:48;;;;;;;4.43;0.50;;;;;;;19.33;67.14;102362.34;7385810;19;20328;-65
2022/07/10 04:42:22;;;;;;;3.13;0.40;;;;;;;19.34;66.98;102356.81;7388884;19;20082;-65
2022/07/10 04:44:49;;;;;;;2.78;0.50;;;;;;;19.32;67.60;102358.00;7383825;19;20039;-65
2022/07/10 04:47:15;;;;;;;1.33;0.45;;;;;;;19.33;67.46;102365.00;7389617;19;20015;-65
2022/07/10 04:49:42;;;;;;;1.50;0.40;;;;;;;19.30;67.56;102357.34;7388041;19;20018;-66
2022/07/10 04:52:09;;;;;;;3.17;0.60;;;;;;;19.30;67.32;102357.34;7387911;19;20014;-65
2022/07/10 04:54:36;;;;;;;3.20;0.50;;;;;;;19.30;67.32;102360.00;7385786;19;20021;-65
2022/07/10 04:57:03;;;;;;;3.67;0.50;;;;;;;19.30;67.77;102360.00;7386654;19;20543;-65
2022/07/10 04:59:30;;;;;;;1.25;0.40;;;;;;;19.29;68.78;102358.34;7384908;19;20014;-65
2022/07/10 05:01:57;;;;;;;1.92;0.60;;;;;;;19.29;69.68;102369.84;7388247;19;20020;-64
2022/07/10 05:04:24;;;;;;;1.50;0.70;;;;;;;19.25;69.93;102368.50;7386982;19;20015;-66
2022/07/10 05:06:51;;;;;;;2.00;0.50;;;;;;;19.28;70.60;102368.19;7384586;19;20475;-65
2022/07/10 05:09:19;;;;;;;2.60;0.70;;;;;;;19.30;70.38;102368.03;7386662;19;20091;-65
2022/07/10 05:11:47;;;;;;;3.15;0.70;;;;;;;19.30;70.53;102366.16;7387215;19;20102;-65
2022/07/10 05:14:14;;;;;;;1.52;0.50;;;;;;;19.30;69.97;102370.69;7385966;19;20078;-65
2022/07/10 05:16:40;;;;;;;2.28;0.70;;;;;;;19.31;70.30;102370.50;7382083;19;20031;-64
2022/07/10 05:19:08;;;;;;;4.18;0.60;;;;;;;19.31;69.88;102375.00;7384870;19;20037;-64
2022/07/10 05:21:34;;;;;;;1.15;0.50;;;;;;;19.32;69.44;102376.69;7386452;19;20026;-64
2022/07/10 05:24:01;;;;;;;2.65;0.50;;;;;;;19.32;69.11;102366.84;7384206;19;20034;-65
2022/07/10 05:26:28;;;;;;;2.28;0.40;;;;;;;19.33;68.49;102370.34;7386572;19;20019;-66
2022/07/10 05:28:55;;;;;;;2.35;0.50;;;;;;;19.32;68.22;102376.69;7386600;19;20015;-65
2022/07/10 05:31:22;;;;;;;2.22;0.60;;;;;;;19.32;68.29;102366.00;7387748;19;20079;-65
2022/07/10 05:33:49;;;;;;;1.90;0.47;;;;;;;19.35;68.16;102373.69;7386693;19;20010;-64
2022/07/10 05:36:16;;;;;;;1.00;0.40;;;;;;;19.37;68.04;102369.81;7382259;19;20022;-65
2022/07/10 05:38:43;;;;;;;4.63;0.52;;;;;;;19.41;67.96;102373.81;7384444;19;20017;-65
2022/07/10 05:41:10;;;;;;;1.92;0.60;;;;;;;19.45;68.12;102377.84;7386599;19;20846;-64
2022/07/10 05:43:46;;;;;;;1.00;0.50;;;;;;;19.43;66.85;102377.16;7386287;19;20491;-64
2022/07/10 05:46:13;;;;;;;1.45;0.50;;;;;;;19.47;66.89;102365.13;7386575;19;20035;-65
2022/07/10 05:48:40;;;;;;;2.63;0.50;;;;;;;19.47;66.75;102372.31;7386754;19;20034;-64
2022/07/10 05:51:08;;;;;;;3.50;0.50;;;;;;;19.45;66.21;102366.34;7382831;19;20779;-65
2022/07/10 05:53:55;;;;;;;2.55;0.40;;;;;;;19.44;65.70;102373.50;7384245;19;20010;-66
2022/07/10 05:56:22;;;;;;;1.77;0.30;;;;;;;19.46;64.87;102367.97;7386606;19;20419;-65
2022/07/10 05:58:49;;;;;;;1.73;0.30;;;;;;;19.46;64.85;102368.81;7384997;19;20014;-66
2022/07/10 06:01:16;;;;;;;4.00;0.40;;;;;;;19.45;65.05;102359.16;7386453;19;20051;-66
2022/07/10 06:03:51;;;;;;;0.82;0.38;;;;;;;19.48;64.88;102360.63;7383329;19;20014;-66
2022/07/10 06:06:18;;;;;;;0.75;0.32;;;;;;;19.48;64.65;102361.47;7384960;19;20120;-66
2022/07/10 06:08:45;;;;;;;2.00;0.30;;;;;;;19.52;64.33;102361.94;7384852;19;20554;-65
2022/07/10 06:11:12;;;;;;;2.05;0.30;;;;;;;19.51;64.14;102374.47;7385226;19;20119;-66
2022/07/10 06:13:46;;;;;;;2.92;0.40;;;;;;;19.55;64.39;102370.47;7384621;19;20111;-66
2022/07/10 06:16:16;;;;;;;1.75;0.30;;;;;;;19.60;64.46;102372.63;7380612;19;20031;-66
2022/07/10 06:18:43;;;;;;;0.85;0.50;;;;;;;19.64;64.75;102369.41;7384310;19;20329;-67
2022/07/10 06:21:11;;;;;;;1.77;0.28;;;;;;;19.69;64.11;102368.88;7385266;19;20052;-66
2022/07/10 06:23:42;;;;;;;1.00;0.20;;;;;;;19.73;64.30;102367.53;7384777;19;20499;-66
2022/07/10 06:26:09;;;;;;;0.50;0.30;;;;;;;19.76;64.23;102367.16;7383475;19;20050;-66
2022/07/10 06:28:36;;;;;;;0.70;0.30;;;;;;;19.78;63.71;102364.31;7383919;19;20424;-66
2022/07/10 06:31:04;;;;;;;2.10;0.25;;;;;;;19.80;64.04;102368.50;7385220;19;20018;-65
2022/07/10 06:33:32;;;;;;;2.08;0.30;;;;;;;19.83;64.04;102368.16;7384177;19;20048;-65
2022/07/10 06:35:59;;;;;;;2.08;0.30;;;;;;;19.87;64.03;102365.94;7383325;19;20513;-64
2022/07/10 06:38:26;;;;;;;1.58;0.40;;;;;;;19.93;64.06;102375.94;7383690;19;20025;-62
2022/07/10 06:40:53;;;;;;;1.38;0.40;;;;;;;19.98;64.23;102369.06;7384243;19;20078;-64
2022/07/10 06:43:19;;;;;;;3.50;0.40;;;;;;;20.02;64.56;102367.69;7383423;19;20074;-62
2022/07/10 06:45:47;;;;;;;1.80;0.40;;;;;;;20.04;64.25;102368.34;7382689;19;20018;-65
2022/07/10 06:48:15;;;;;;;1.33;0.20;;;;;;;20.07;64.03;102362.63;7385184;19;20032;-64
2022/07/10 06:50:42;;;;;;;2.67;0.40;;;;;;;20.08;63.99;102361.63;7380676;19;20041;-63
2022/07/10 06:53:09;;;;;;;1.20;0.40;;;;;;;20.07;64.04;102362.63;7383651;19;20019;-63
2022/07/10 06:55:37;;;;;;;2.65;0.43;;;;;;;20.13;64.27;102357.59;7383830;19;20461;-63
2022/07/10 06:58:04;;;;;;;1.52;0.28;;;;;;;20.16;63.75;102357.25;7383231;19;20068;-65
2022/07/10 07:00:31;;;;;;;2.35;0.30;;;;;;;20.20;63.73;102353.22;7383804;19;20059;-65
2022/07/10 07:02:58;;;;;;;1.10;0.40;;;;;;;20.24;63.43;102359.88;7384196;19;20510;-65
2022/07/10 07:05:25;;;;;;;1.77;0.40;;;;;;;20.27;63.47;102359.50;7380418;19;20097;-66
2022/07/10 07:07:52;;;;;;;1.08;0.40;;;;;;;20.29;63.38;102358.31;7384416;19;20020;-63
2022/07/10 07:10:19;;;;;;;2.35;0.50;;;;;;;20.30;63.17;102357.31;7382949;19;20117;-63
2022/07/10 07:12:46;;;;;;;1.20;0.30;;;;;;;20.30;62.70;102357.31;7382828;19;20693;-63
2022/07/10 07:15:15;;;;;;;0.68;0.28;;;;;;;20.34;62.98;102358.66;7383912;19;20046;-63
2022/07/10 07:18:07;;;;;;;1.77;0.40;;;;;;;20.39;62.91;102353.59;7378043;19;20018;-63
2022/07/10 07:23:22;;;;;;;0.63;0.20;;;;;;;20.44;61.77;102356.56;7378241;19;20074;-64
2022/07/10 07:25:49;;;;;;;0.80;0.30;;;;;;;20.46;61.65;102348.38;7381933;19;20034;-62
2022/07/10 07:28:19;;;;;;;1.55;0.35;;;;;;;20.47;62.10;102348.16;7383435;19;20075;-63
2022/07/10 07:30:47;;;;;;;1.52;0.30;;;;;;;20.51;61.95;102348.66;7382588;19;20018;-62
2022/07/10 07:33:15;;;;;;;3.08;0.40;;;;;;;20.53;61.83;102340.44;7382090;19;20060;-62
2022/07/10 07:35:42;;;;;;;1.17;0.30;;;;;;;20.58;62.00;102341.56;7378711;19;20090;-63
2022/07/10 07:38:09;;;;;;;2.38;0.40;;;;;;;20.63;62.70;102339.16;7378915;19;20690;-65
2022/07/10 07:40:37;;;;;;;3.20;0.32;;;;;;;20.72;62.13;102346.13;7380315;19;20696;-65
2022/07/10 07:43:04;;;;;;;1.95;0.95;;;;;;;20.79;61.73;102348.88;7382183;19;20033;-65
2022/07/10 07:45:31;;;;;;;2.97;0.40;;;;;;;20.89;61.35;102341.41;7381727;19;20439;-67
2022/07/10 07:47:59;;;;;;;2.03;0.40;;;;;;;21.03;60.71;102351.31;7383512;19;20479;-67
2022/07/10 07:50:34;;;;;;;0.85;0.28;;;;;;;21.26;60.84;102346.72;7380693;19;20126;-66
2022/07/10 07:53:05;;;;;;;1.08;0.57;;;;;;;21.45;60.56;102344.50;7380497;19;20018;-64
2022/07/10 07:55:33;;;;;;;1.60;0.30;;;;;;;21.53;59.92;102347.91;7380562;19;20030;-64
2022/07/10 07:58:02;;;;;;;1.63;0.40;;;;;;;21.59;59.93;102348.97;7383464;19;20109;-64
2022/07/10 08:00:30;;;;;;;4.05;0.40;;;;;;;21.61;60.04;102346.97;7381599;19;20106;-66
2022/07/10 08:02:58;;;;;;;1.48;0.40;;;;;;;21.65;59.79;102351.75;7381886;19;20010;-65
2022/07/10 08:05:25;;;;;;;1.83;0.30;;;;;;;21.65;59.84;102351.75;7379447;19;20007;-64
2022/07/10 08:07:54;;;;;;;3.53;0.30;;;;;;;21.62;59.85;102348.63;7379457;19;20073;-65
2022/07/10 08:10:23;;;;;;;3.75;0.98;;;;;;;21.62;60.10;102351.31;7377189;19;20089;-65
2022/07/10 08:12:50;;;;;;;1.48;0.32;;;;;;;21.62;59.90;102353.97;7382882;19;20027;-66
2022/07/10 08:15:21;;;;;;;1.08;0.22;;;;;;;21.61;59.69;102352.31;7380007;19;20014;-65
2022/07/10 08:17:50;;;;;;;0.98;0.32;;;;;;;21.61;60.19;102349.63;7378242;19;20023;-65
2022/07/10 08:20:17;;;;;;;1.83;0.45;;;;;;;21.60;60.00;102354.16;7377427;19;20483;-66
2022/07/10 08:22:44;;;;;;;2.08;0.35;;;;;;;21.56;59.88;102342.16;7383091;19;20430;-64
2022/07/10 08:25:11;;;;;;;1.15;0.40;;;;;;;21.59;60.29;102343.63;7379232;19;20019;-64
2022/07/10 08:27:38;;;;;;;4.05;0.50;;;;;;;21.62;60.61;102343.28;7379960;19;20015;-64
2022/07/10 08:30:10;;;;;;;3.08;0.40;;;;;;;21.64;60.97;102339.38;7381586;19;20106;-66
2022/07/10 08:32:38;;;;;;;4.87;0.50;;;;;;;21.69;60.63;102344.16;7380284;19;20018;-66
2022/07/10 08:35:07;;;;;;;2.05;0.40;;;;;;;21.72;60.77;102336.59;7381312;19;20023;-67
2022/07/10 08:37:39;;;;;;;1.85;0.38;;;;;;;21.75;61.19;102336.19;7378673;19;20014;-66
2022/07/10 08:40:09;;;;;;;2.67;0.38;;;;;;;21.79;60.70;102330.47;7380906;19;20487;-65
2022/07/10 08:42:36;;;;;;;1.90;0.40;;;;;;;21.83;60.73;102334.44;7379244;19;20042;-66
2022/07/10 08:45:06;;;;;;;2.85;0.47;;;;;;;21.85;60.34;102332.38;7380416;19;20029;-65
2022/07/10 08:47:38;;;;;;;2.63;0.40;;;;;;;21.88;60.58;102334.69;7379781;19;20025;-67
2022/07/10 08:50:14;;;;;;;;;;;;;;;21.91;60.94;102327.09;7379769;19;20392;-65
2022/07/10 08:52:57;;;;;;;3.90;0.50;;;;;;;21.92;60.13;102328.75;7381616;19;20694;-63
2022/07/10 08:55:25;;;;;;;0.90;0.50;;;;;;;21.97;60.00;102331.72;7379386;19;20015;-64
2022/07/10 08:57:55;;;;;;;3.63;0.65;;;;;;;22.01;60.40;102324.97;7382251;19;20014;-66
2022/07/10 09:00:23;;;;;;;2.13;0.50;;;;;;;22.05;60.38;102334.28;7379754;19;20015;-62
2022/07/10 09:02:50;;;;;;;2.47;0.60;;;;;;;22.11;59.74;102324.63;7381841;19;20014;-64
2022/07/10 09:05:17;;;;;;;3.72;0.40;;;;;;;22.17;60.22;102324.72;7377344;19;20022;-66
2022/07/10 09:07:44;;;;;;;3.70;0.50;;;;;;;22.22;59.81;102328.66;7379077;19;20010;-63
2022/07/10 09:10:11;;;;;;;1.58;0.52;;;;;;;22.22;59.93;102329.50;7377282;19;20010;-63
2022/07/10 09:12:53;;;;;;;3.03;0.40;;;;;;;22.28;60.38;102328.72;7378763;19;20078;-63
2022/07/10 09:15:22;;;;;;;4.30;0.50;;;;;;;22.35;60.06;102326.91;7377593;19;20040;-63
2022/07/10 09:17:56;;;;;;;2.30;0.50;;;;;;;22.40;60.10;102321.00;7379929;19;20295;-63
2022/07/10 09:20:37;;;;;;;5.85;0.70;;;;;;;22.46;59.61;102320.19;7374494;19;20015;-62
2022/07/10 09:23:17;;;;;;;2.95;0.68;;;;;;;22.48;60.31;102316.31;7384204;19;20018;-62
2022/07/10 09:25:47;;;;;;;1.10;0.50;;;;;;;22.52;59.54;102314.06;7380874;19;20042;-63
2022/07/10 09:28:17;;;;;;;3.60;0.60;;;;;;;22.58;59.34;102311.44;7387248;19;20018;-65
2022/07/10 09:30:46;;;;;;;2.42;0.60;;;;;;;22.67;59.67;102311.28;7382844;19;20016;-65
2022/07/10 09:33:19;;;;;;;5.32;0.90;;;;;;;22.78;59.07;102308.09;7386736;19;20103;-65
2022/07/10 09:36:05;;;;;;;2.35;0.70;;;;;;;22.88;58.75;102301.34;7385988;19;20036;-65
2022/07/10 09:38:44;;;;;;;4.88;1.08;;;;;;;23.02;58.93;102300.38;7383365;19;20033;-65
2022/07/10 09:41:19;;;;;;;2.55;0.93;;;;;;;23.12;58.91;102300.00;7385724;19;20490;-69
2022/07/10 09:43:59;;;;;;;2.03;0.70;;;;;;;23.26;58.26;102303.63;7387667;19;20645;-65
2022/07/10 09:46:30;;;;;;;4.80;0.88;;;;;;;23.36;58.34;102296.00;7383170;19;20010;-65
2022/07/10 09:49:12;;;;;;;2.15;0.85;;;;;;;23.44;58.10;102301.19;7384883;19;20010;-65
2022/07/10 09:51:44;;;;;;;5.72;1.20;;;;;;;23.50;57.52;102284.28;7376938;19;20527;-66
2022/07/10 09:54:15;;;;;;;3.35;0.70;;;;;;;23.58;57.77;102283.28;7381219;19;20022;-66
2022/07/10 09:56:47;;;;;;;4.65;1.27;;;;;;;23.66;56.94;102277.72;7386953;19;20425;-63
2022/07/10 09:59:18;;;;;;;3.15;0.90;;;;;;;23.74;56.63;102275.66;7384531;19;20015;-62
2022/07/10 10:01:51;;;;;;;2.00;1.10;;;;;;;23.80;56.42;102274.84;7384342;19;20010;-64
2022/07/10 10:04:19;;;;;;;2.80;0.88;;;;;;;23.90;56.35;102273.63;7384658;19;20018;-63
2022/07/10 10:06:51;;;;;;;3.25;0.90;;;;;;;23.98;56.20;102276.94;7384397;19;20014;-65
2022/07/10 10:09:24;;;;;;;6.63;1.75;;;;;;;24.08;56.29;102271.97;7379383;19;20023;-65
2022/07/10 10:12:02;;;;;;;2.60;0.80;;;;;;;24.19;55.69;102273.25;7386261;19;20018;-65
2022/07/10 10:14:33;;;;;;;6.22;0.80;;;;;;;24.27;54.77;102273.88;7385886;19;20010;-65
2022/07/10 10:17:01;;;;;;;3.22;0.77;;;;;;;24.38;54.75;102260.84;7384767;19;20034;-66
2022/07/10 10:22:18;;;;;;;4.68;1.00;;;;;;;24.59;54.00;102257.88;7378734;19;20018;-65
2022/07/10 10:24:46;;;;;;;3.45;0.70;;;;;;;24.65;53.34;102263.28;7383550;19;20006;-64
2022/07/10 10:27:15;;;;;;;2.03;0.70;;;;;;;24.67;53.71;102258.50;7382885;19;20022;-64
2022/07/10 10:29:42;;;;;;;11.50;0.90;;;;;;;24.73;54.19;102261.41;7383450;19;20468;-68
2022/07/10 10:32:10;;;;;;;4.18;0.80;;;;;;;24.77;52.45;102258.06;7378795;19;20007;-65
2022/07/10 10:34:41;;;;;;;4.60;0.63;;;;;;;24.82;52.66;102260.94;7383662;19;20018;-65
2022/07/10 10:37:36;;;;;;;4.20;1.27;;;;;;;24.92;51.60;102260.53;7382087;19;20018;-64
2022/07/10 10:40:07;;;;;;;3.55;0.85;;;;;;;24.95;51.85;102255.53;7381560;19;20018;-65
2022/07/10 10:42:44;;;;;;;3.63;0.57;;;;;;;24.98;51.52;102259.69;7386510;19;20761;-66
2022/07/10 10:45:23;;;;;;;3.60;0.65;;;;;;;24.99;52.00;102262.16;7384549;19;20023;-65
2022/07/10 10:48:09;;;;;;;2.05;0.60;;;;;;;24.96;51.03;102254.50;7384825;19;20115;-65
2022/07/10 10:51:01;;;;;;;1.67;0.60;;;;;;;24.98;51.00;102252.44;7381338;19;20006;-65
2022/07/10 10:53:32;;;;;;;3.17;0.40;;;;;;;25.02;50.66;102250.97;7384072;19;20019;-66
2022/07/10 10:56:13;;;;;;;4.40;0.60;;;;;;;25.06;49.43;102248.66;7382160;19;20021;-65
2022/07/10 10:58:43;;;;;;;3.53;0.60;;;;;;;25.08;49.93;102246.59;7384766;19;20011;-66
2022/07/10 11:01:22;;;;;;;2.80;0.40;;;;;;;25.14;49.89;102246.56;7381158;19;20044;-66
2022/07/10 11:04:05;;;;;;;2.03;0.40;;;;;;;25.13;49.30;102244.91;7382865;19;20014;-66
2022/07/10 11:06:42;;;;;;;5.47;0.70;;;;;;;25.14;48.61;102237.66;7381261;19;20511;-66
2022/07/10 11:09:24;;;;;;;1.50;0.40;;;;;;;25.21;48.01;102232.22;7381131;19;20006;-64
2022/07/10 11:12:08;;;;;;;1.83;0.45;;;;;;;25.20;48.82;102227.88;7383698;19;20104;-62
2022/07/10 11:14:40;;;;;;;7.47;2.15;;;;;;;25.18;49.21;102232.66;7381778;19;20497;-63
2022/07/10 11:17:08;;;;;;;5.25;0.70;;;;;;;25.22;49.42;102233.88;7382264;19;20014;-63
2022/07/10 11:19:36;;;;;;;3.00;0.60;;;;;;;25.26;48.99;102233.22;7383195;19;20010;-63
2022/07/10 11:22:19;;;;;;;32.00;2.40;;;;;;;25.31;48.27;102224.50;7378576;19;20056;-63
2022/07/10 11:25:35;;;;;;;17.15;1.23;;;;;;;25.35;47.47;102223.03;7381833;19;20546;-63
2022/07/10 11:28:10;;;;;;;5.13;0.60;;;;;;;25.39;47.79;102214.31;7380610;19;20138;-63
2022/07/10 11:30:50;;;;;;;9.68;3.25;;;;;;;25.39;47.35;102218.88;7381377;19;20138;-64
2022/07/10 11:33:19;;;;;;;10.45;2.53;;;;;;;25.41;47.66;102214.06;7382594;19;20025;-63
2022/07/10 11:35:48;;;;;;;11.02;3.78;;;;;;;25.45;47.27;102210.72;7380730;19;20943;-66
2022/07/10 11:38:26;;;;;;;6.32;2.00;;;;;;;25.47;47.59;102215.91;7378396;19;20406;-64
2022/07/10 11:40:54;;;;;;;12.55;2.55;;;;;;;25.46;47.13;102206.16;7380352;19;20016;-65
2022/07/10 11:43:23;;;;;;;9.85;1.23;;;;;;;25.54;47.92;102208.59;7381703;19;20605;-65